Time;durP1;ratioP1;P1;durP2;ratioP2;P2;SDS_P1;SDS_P2;PMS_P1;PMS_P2;Temp;Humidity;BMP_temperature;BMP_pressure;BME280_temperature;BME280_humidity;BME280_pressure;Samples;Min_cycle;Max_cycle;Signal;HPM_P1;HPM_P2
2023/05/15 00:01:06;;;;;;;13.95;11.02;;;;;;;16.93;65.79;99758.50;5069878;27;97466;-73
2023/05/15 00:03:32;;;;;;;11.40;10.20;;;;;;;17.05;66.09;99775.34;5052032;27;97183;-73
2023/05/15 00:05:57;;;;;;;13.80;10.90;;;;;;;17.03;66.28;99764.00;5071346;27;97240;-73
2023/05/15 00:08:23;;;;;;;13.00;9.57;;;;;;;17.01;66.47;99753.47;5039672;27;101136;-73
2023/05/15 00:10:49;;;;;;;12.68;9.73;;;;;;;16.98;66.05;99748.38;5071278;27;97295;-73
2023/05/15 00:13:16;;;;;;;10.75;9.40;;;;;;;16.99;66.33;99744.81;5040642;27;97441;-73
2023/05/15 00:15:42;;;;;;;11.60;9.57;;;;;;;16.88;66.72;99740.25;5050896;27;97210;-73
2023/05/15 00:18:07;;;;;;;14.55;8.85;;;;;;;16.86;66.50;99736.84;5058371;27;98051;-73
2023/05/15 00:20:33;;;;;;;9.75;7.97;;;;;;;16.87;66.44;99743.84;5069013;27;97400;-73
2023/05/15 00:22:58;;;;;;;9.40;8.02;;;;;;;16.81;66.97;99732.81;5054665;27;97537;-73
2023/05/15 00:25:24;;;;;;;11.63;8.35;;;;;;;16.79;67.08;99732.09;5033890;27;96907;-73
2023/05/15 00:27:49;;;;;;;10.73;8.85;;;;;;;16.86;66.78;99728.03;5032301;27;101685;-73
2023/05/15 00:30:15;;;;;;;14.60;9.10;;;;;;;16.88;66.88;99736.75;5034820;27;101908;-73
2023/05/15 00:32:41;;;;;;;9.88;8.50;;;;;;;16.86;66.91;99722.75;5065992;27;96716;-73
2023/05/15 00:35:06;;;;;;;12.77;8.70;;;;;;;16.80;67.31;99713.41;5068414;27;97184;-73
2023/05/15 00:37:32;;;;;;;11.52;8.73;;;;;;;16.81;67.14;99701.00;5069731;27;97889;-73
2023/05/15 00:39:57;;;;;;;13.95;8.45;;;;;;;16.84;67.23;99696.34;5051617;27;99342;-73
2023/05/15 00:42:24;;;;;;;12.70;8.77;;;;;;;16.83;67.46;99684.03;5069910;27;96844;-73
2023/05/15 00:44:51;;;;;;;13.52;8.77;;;;;;;16.69;67.55;99668.22;5051972;27;97264;-73
2023/05/15 00:47:19;;;;;;;9.20;8.23;;;;;;;16.74;67.42;99671.41;5051030;27;102355;-73
2023/05/15 00:49:46;;;;;;;10.73;9.02;;;;;;;16.72;67.87;99666.19;5067177;27;98080;-73
2023/05/15 00:52:12;;;;;;;12.98;9.10;;;;;;;16.69;68.25;99662.91;5051630;27;97099;-73
2023/05/15 00:54:38;;;;;;;11.07;8.82;;;;;;;16.70;67.76;99656.69;5064708;27;97370;-73
2023/05/15 00:57:04;;;;;;;10.90;9.73;;;;;;;16.69;67.91;99655.81;5050900;27;101666;-73
2023/05/15 00:59:30;;;;;;;12.75;10.23;;;;;;;16.71;67.70;99653.06;5066543;27;97365;-73
2023/05/15 01:01:56;;;;;;;11.68;9.63;;;;;;;16.71;67.65;99650.41;5051255;27;96826;-73
2023/05/15 01:04:22;;;;;;;9.65;8.63;;;;;;;16.72;67.75;99660.91;5051242;27;96986;-73
2023/05/15 01:06:52;;;;;;;11.60;9.90;;;;;;;16.69;67.53;99661.09;5051631;27;101133;-73
2023/05/15 01:09:19;;;;;;;11.95;9.00;;;;;;;16.58;67.16;99636.31;5068911;27;97889;-73
2023/05/15 01:11:49;;;;;;;11.20;9.35;;;;;;;16.60;67.29;99642.38;5069368;27;97053;-73
2023/05/15 01:14:15;;;;;;;12.32;9.40;;;;;;;16.58;67.05;99633.66;5048403;27;97211;-73
2023/05/15 01:16:40;;;;;;;11.57;9.63;;;;;;;16.64;67.27;99646.50;5066418;27;98054;-73
2023/05/15 01:19:06;;;;;;;10.98;9.88;;;;;;;16.56;67.11;99638.25;5051657;27;101851;-73
2023/05/15 01:21:36;;;;;;;11.32;8.82;;;;;;;16.32;67.72;99609.88;5052622;27;97501;-73
2023/05/15 01:24:24;;;;;;;12.38;8.40;;;;;;;16.59;67.31;99644.19;5051804;27;96917;-73
2023/05/15 01:27:23;;;;;;;14.07;8.85;;;;;;;16.53;67.43;99637.50;5039040;27;101151;-73
2023/05/15 01:29:58;;;;;;;13.05;8.55;;;;;;;16.52;67.48;99642.88;5068173;27;101186;-73
2023/05/15 01:32:30;;;;;;;13.10;8.27;;;;;;;16.26;67.91;99642.91;5056528;27;96793;-73
2023/05/15 01:35:21;;;;;;;9.05;7.95;;;;;;;16.22;67.87;99632.63;5050099;27;97428;-73
2023/05/15 01:37:52;;;;;;;7.97;6.80;;;;;;;16.32;67.97;99643.41;5048796;27;101176;-73
2023/05/15 01:40:20;;;;;;;7.35;6.65;;;;;;;16.39;67.21;99632.31;5051298;27;101338;-73
2023/05/15 01:42:54;;;;;;;8.65;6.68;;;;;;;16.39;67.47;99624.38;5069164;27;96856;-73
2023/05/15 01:45:22;;;;;;;8.50;6.90;;;;;;;16.42;67.61;99625.97;5042773;27;97330;-73
2023/05/15 01:47:48;;;;;;;7.90;6.68;;;;;;;16.42;67.46;99629.44;5051113;27;101249;-73
2023/05/15 01:50:16;;;;;;;8.35;6.95;;;;;;;16.39;67.61;99626.16;5033377;27;101151;-73
2023/05/15 01:52:45;;;;;;;9.65;7.50;;;;;;;16.43;67.20;99617.88;5068835;27;96796;-73
2023/05/15 01:55:12;;;;;;;11.40;6.53;;;;;;;16.46;67.24;99608.88;5051028;27;96906;-73
2023/05/15 01:57:39;;;;;;;12.02;7.13;;;;;;;16.41;67.48;99614.53;5028307;27;101232;-73
2023/05/15 02:00:06;;;;;;;13.02;7.07;;;;;;;16.38;67.41;99598.84;5031482;27;101449;-73
2023/05/15 02:02:41;;;;;;;9.10;6.50;;;;;;;16.25;67.46;99572.34;5065334;27;96807;-73
2023/05/15 02:05:07;;;;;;;8.27;7.03;;;;;;;16.41;67.53;99590.69;5070928;27;97291;-73
2023/05/15 02:07:32;;;;;;;10.52;6.20;;;;;;;16.41;67.28;99589.84;5072478;27;97979;-73
2023/05/15 02:09:59;;;;;;;12.30;6.35;;;;;;;16.33;67.95;99578.94;5038345;27;101210;-73
2023/05/15 02:12:26;;;;;;;7.38;6.53;;;;;;;16.27;68.25;99583.69;5034611;27;97403;-73
2023/05/15 02:14:52;;;;;;;8.13;6.30;;;;;;;16.07;68.53;99550.63;5065401;27;97371;-73
2023/05/15 02:17:19;;;;;;;9.50;5.70;;;;;;;16.11;68.50;99555.72;5052975;27;101123;-73
2023/05/15 02:19:44;;;;;;;6.75;5.78;;;;;;;16.18;68.39;99570.25;5053924;27;99662;-73
2023/05/15 02:22:10;;;;;;;7.95;5.22;;;;;;;16.10;69.00;99570.75;5070038;27;97137;-73
2023/05/15 02:24:35;;;;;;;10.02;6.60;;;;;;;16.04;68.36;99556.16;5055032;27;97310;-73
2023/05/15 02:27:11;;;;;;;10.93;5.72;;;;;;;16.16;68.44;99566.84;5054012;27;98163;-73
2023/05/15 02:30:05;;;;;;;5.07;4.55;;;;;;;16.12;68.56;99560.09;5070989;27;97847;-73
2023/05/15 02:32:49;;;;;;;5.32;4.68;;;;;;;16.06;68.50;99556.91;5071125;27;97136;-73
2023/05/15 02:35:37;;;;;;;5.43;4.40;;;;;;;16.11;68.23;99553.06;5061030;27;97457;-73
2023/05/15 02:38:08;;;;;;;7.20;4.72;;;;;;;16.13;68.15;99540.59;5063858;27;101582;-73
2023/05/15 02:40:35;;;;;;;5.68;4.72;;;;;;;16.06;68.06;99516.34;5071326;27;97402;-73
2023/05/15 02:43:01;;;;;;;5.93;4.50;;;;;;;16.12;68.38;99529.16;5054018;27;97202;-74
2023/05/15 02:45:27;;;;;;;5.93;4.28;;;;;;;16.14;68.09;99529.88;5070327;27;96860;-73
2023/05/15 02:47:53;;;;;;;8.55;4.65;;;;;;;16.11;68.00;99518.66;5071269;27;97596;-73
2023/05/15 02:50:18;;;;;;;6.47;4.30;;;;;;;16.02;68.28;99504.25;5069809;27;97257;-73
2023/05/15 02:52:44;;;;;;;5.55;4.07;;;;;;;16.12;68.34;99507.13;5034221;27;96862;-73
2023/05/15 02:55:09;;;;;;;6.47;4.38;;;;;;;16.12;68.29;99505.31;5047393;27;97295;-73
2023/05/15 02:57:35;;;;;;;7.65;4.47;;;;;;;16.13;68.49;99501.72;5071994;27;97506;-73
2023/05/15 03:00:01;;;;;;;5.40;3.83;;;;;;;16.01;68.15;99476.94;5034675;27;101393;-74
2023/05/15 03:02:27;;;;;;;4.85;4.30;;;;;;;16.02;68.34;99475.97;5071346;27;96747;-73
2023/05/15 03:04:52;;;;;;;8.00;4.88;;;;;;;16.19;68.34;99493.34;5054290;27;96937;-73
2023/05/15 03:07:18;;;;;;;8.48;4.57;;;;;;;16.09;68.59;99483.53;5053174;27;100921;-73
2023/05/15 03:09:43;;;;;;;6.10;4.60;;;;;;;15.94;68.56;99458.94;5058564;27;101129;-73
2023/05/15 03:12:09;;;;;;;6.45;4.78;;;;;;;16.09;68.51;99470.28;5036558;27;97082;-73
2023/05/15 03:14:35;;;;;;;8.48;6.18;;;;;;;16.01;68.63;99470.81;5053019;27;96982;-74
2023/05/15 03:17:00;;;;;;;6.00;4.53;;;;;;;16.08;68.48;99466.78;5053050;27;101325;-73
2023/05/15 03:19:26;;;;;;;5.75;4.90;;;;;;;16.08;68.46;99458.81;5052112;27;101240;-73
2023/05/15 03:21:52;;;;;;;7.22;5.43;;;;;;;16.12;68.47;99464.78;5053282;27;97111;-73
2023/05/15 03:24:17;;;;;;;6.32;4.80;;;;;;;16.10;68.81;99462.22;5053164;27;97080;-73
2023/05/15 03:26:43;;;;;;;7.00;5.90;;;;;;;16.16;68.85;99458.28;5070832;27;101354;-73
2023/05/15 03:29:10;;;;;;;9.07;5.00;;;;;;;16.14;68.69;99454.91;5069921;27;101768;-73
2023/05/15 03:31:35;;;;;;;6.43;5.22;;;;;;;16.14;68.70;99453.09;5069705;27;96864;-73
2023/05/15 03:34:01;;;;;;;8.98;5.85;;;;;;;15.99;68.97;99433.00;5070457;27;97309;-73
2023/05/15 03:36:26;;;;;;;7.75;5.22;;;;;;;16.01;69.38;99442.53;5035223;27;101889;-73
2023/05/15 03:38:52;;;;;;;6.13;5.22;;;;;;;15.88;69.08;99428.47;5069938;27;97948;-73
2023/05/15 03:41:17;;;;;;;7.25;5.43;;;;;;;16.04;69.20;99439.66;5052799;27;97194;-73
2023/05/15 03:43:43;;;;;;;9.38;5.72;;;;;;;16.04;69.12;99438.84;5053106;27;97402;-73
2023/05/15 03:46:08;;;;;;;9.38;4.53;;;;;;;16.09;69.01;99435.88;5069130;27;101684;-73
2023/05/15 03:48:34;;;;;;;7.78;4.43;;;;;;;16.07;68.70;99435.97;5069728;27;97949;-73
2023/05/15 03:51:04;;;;;;;4.50;3.92;;;;;;;16.06;68.77;99440.41;5053765;27;97395;-73
2023/05/15 03:53:30;;;;;;;4.85;4.03;;;;;;;16.10;68.67;99433.09;5047018;27;97562;-73
2023/05/15 03:55:55;;;;;;;6.25;3.78;;;;;;;15.95;68.72;99411.22;5041833;27;97923;-73
2023/05/15 03:58:21;;;;;;;5.07;3.90;;;;;;;16.06;68.76;99429.00;5047073;27;100190;-73
2023/05/15 04:00:48;;;;;;;5.47;3.67;;;;;;;16.04;68.45;99434.38;5071034;27;98285;-73
2023/05/15 04:03:14;;;;;;;4.95;3.90;;;;;;;16.01;68.34;99431.94;5052731;27;96810;-73
2023/05/15 04:05:39;;;;;;;5.30;3.97;;;;;;;16.03;68.67;99435.34;5052138;27;101054;-73
2023/05/15 04:08:05;;;;;;;6.07;4.25;;;;;;;16.02;68.41;99430.97;5053204;27;98086;-73
2023/05/15 04:10:32;;;;;;;4.50;3.92;;;;;;;15.91;68.95;99401.81;5053233;27;97015;-73
2023/05/15 04:12:58;;;;;;;6.50;3.90;;;;;;;16.05;69.02;99424.63;5048870;27;97358;-73
2023/05/15 04:15:24;;;;;;;6.00;4.35;;;;;;;16.13;68.82;99422.28;5050816;27;101440;-73
2023/05/15 04:17:52;;;;;;;6.35;4.55;;;;;;;16.00;68.75;99403.81;5070369;27;98394;-73
2023/05/15 04:20:20;;;;;;;5.85;4.78;;;;;;;16.11;68.67;99412.75;5051772;27;97163;-73
2023/05/15 04:22:46;;;;;;;6.68;4.82;;;;;;;16.03;68.60;99410.69;5053499;27;96808;-73
2023/05/15 04:25:13;;;;;;;7.47;5.40;;;;;;;16.09;68.84;99425.28;5047985;27;97891;-73
2023/05/15 04:27:39;;;;;;;5.57;4.95;;;;;;;16.01;69.21;99416.06;5032030;27;97954;-73
2023/05/15 04:30:06;;;;;;;6.43;4.88;;;;;;;15.92;68.97;99400.84;5009945;28;97406;-73
2023/05/15 04:32:32;;;;;;;7.82;5.30;;;;;;;16.04;69.17;99418.50;5010073;27;96848;-73
2023/05/15 04:35:05;;;;;;;8.85;5.88;;;;;;;16.07;69.02;99417.44;5031565;27;97448;-73
2023/05/15 04:37:30;;;;;;;6.82;5.32;;;;;;;16.06;69.15;99416.59;5016240;27;97418;-73
2023/05/15 04:39:56;;;;;;;9.45;6.18;;;;;;;16.00;69.47;99416.19;5012521;28;97103;-73
2023/05/15 04:42:22;;;;;;;8.02;5.93;;;;;;;16.04;69.61;99407.06;4998969;27;96937;-73
2023/05/15 04:44:48;;;;;;;6.95;6.03;;;;;;;16.02;69.79;99409.81;5023553;27;97427;-73
2023/05/15 04:47:13;;;;;;;9.73;6.97;;;;;;;16.05;69.52;99406.09;5013274;27;97861;-73
2023/05/15 04:49:40;;;;;;;6.95;6.25;;;;;;;15.93;69.77;99384.00;5014696;27;97022;-73
2023/05/15 04:52:06;;;;;;;8.52;6.43;;;;;;;16.05;69.48;99391.06;5015263;27;97386;-73
2023/05/15 04:54:32;;;;;;;7.47;6.45;;;;;;;16.01;69.32;99378.16;5031841;27;98064;-73
2023/05/15 04:56:57;;;;;;;7.72;6.20;;;;;;;16.13;68.75;99394.97;5012915;27;101973;-73
2023/05/15 04:59:23;;;;;;;9.00;6.00;;;;;;;16.07;68.92;99383.03;5030689;27;97088;-73
2023/05/15 05:01:50;;;;;;;11.02;5.65;;;;;;;16.11;69.24;99383.66;5031977;27;97103;-73
2023/05/15 05:04:18;;;;;;;8.60;6.15;;;;;;;15.98;69.42;99366.00;5013542;27;102035;-73
2023/05/15 05:06:47;;;;;;;7.80;6.75;;;;;;;16.10;69.06;99376.66;5015093;27;100614;-73
2023/05/15 05:09:12;;;;;;;7.75;6.75;;;;;;;16.04;69.39;99372.66;5014256;27;96709;-73
2023/05/15 05:11:42;;;;;;;8.77;7.63;;;;;;;15.98;69.31;99351.94;5032349;27;96837;-73
2023/05/15 05:14:10;;;;;;;8.38;7.40;;;;;;;16.09;69.43;99386.41;4997046;27;101174;-73
2023/05/15 05:16:36;;;;;;;8.45;6.88;;;;;;;16.03;69.37;99385.06;5014720;27;100967;-73
2023/05/15 05:19:02;;;;;;;10.80;7.43;;;;;;;16.05;69.49;99384.94;4997622;27;97101;-73
2023/05/15 05:21:28;;;;;;;8.38;7.38;;;;;;;16.07;69.75;99378.56;5012950;27;96849;-73
2023/05/15 05:23:54;;;;;;;9.55;6.88;;;;;;;16.12;69.36;99370.31;5031907;27;97465;-73
2023/05/15 05:26:20;;;;;;;9.48;6.82;;;;;;;15.98;69.33;99346.63;5052658;27;101452;-73
2023/05/15 05:28:46;;;;;;;8.70;7.72;;;;;;;16.11;69.29;99365.13;5052183;27;97560;-73
2023/05/15 05:31:12;;;;;;;11.02;7.53;;;;;;;16.08;69.28;99352.94;5068184;27;97236;-73
2023/05/15 05:33:37;;;;;;;6.97;6.28;;;;;;;15.91;69.31;99340.06;5050453;27;100679;-73
2023/05/15 05:36:04;;;;;;;6.47;5.88;;;;;;;16.09;69.28;99362.59;5051364;27;101174;-73
2023/05/15 05:38:29;;;;;;;8.18;6.65;;;;;;;16.06;68.82;99353.06;5061674;27;97210;-73
2023/05/15 05:40:55;;;;;;;8.35;5.80;;;;;;;16.11;69.03;99350.06;5073228;27;97166;-73
2023/05/15 05:43:20;;;;;;;8.43;6.55;;;;;;;16.11;68.95;99352.72;5050796;27;98079;-73
2023/05/15 05:45:46;;;;;;;7.97;5.20;;;;;;;16.09;68.72;99343.22;5067976;27;99744;-73
2023/05/15 05:48:12;;;;;;;8.82;5.43;;;;;;;16.14;68.67;99341.06;5054243;27;96844;-73
2023/05/15 05:50:38;;;;;;;7.90;5.60;;;;;;;16.12;68.75;99341.19;5055650;27;96999;-73
2023/05/15 05:53:04;;;;;;;5.57;5.07;;;;;;;16.14;69.21;99344.56;5054900;27;97454;-73
2023/05/15 05:55:29;;;;;;;6.00;5.13;;;;;;;16.08;69.08;99334.41;5067186;27;99150;-73
2023/05/15 05:57:55;;;;;;;5.93;5.10;;;;;;;16.13;69.08;99328.78;5070551;27;96863;-73
2023/05/15 06:00:21;;;;;;;6.20;5.38;;;;;;;16.19;68.68;99336.28;5053849;27;97456;-73
2023/05/15 06:02:46;;;;;;;7.20;5.63;;;;;;;16.20;68.59;99330.91;5051114;27;101470;-73
2023/05/15 06:05:12;;;;;;;8.82;5.45;;;;;;;16.17;68.78;99312.56;5053682;27;101124;-73
2023/05/15 06:07:37;;;;;;;6.78;5.45;;;;;;;16.31;68.83;99316.84;5033945;27;96874;-73
2023/05/15 06:10:03;;;;;;;9.00;5.43;;;;;;;16.29;68.60;99310.84;5044514;27;97452;-73
2023/05/15 06:12:29;;;;;;;9.10;5.82;;;;;;;16.16;68.90;99289.69;5070358;27;100840;-73
2023/05/15 06:14:54;;;;;;;8.15;5.90;;;;;;;16.22;68.64;99313.06;5070917;27;101207;-73
2023/05/15 06:17:20;;;;;;;6.35;5.30;;;;;;;16.27;68.33;99304.81;5052837;27;97228;-73
2023/05/15 06:19:45;;;;;;;7.80;5.65;;;;;;;16.37;68.52;99310.25;5048034;27;97448;-73
2023/05/15 06:22:11;;;;;;;6.32;5.68;;;;;;;16.44;68.08;99304.41;5050151;27;101035;-73
2023/05/15 06:24:37;;;;;;;6.15;4.75;;;;;;;16.42;68.16;99298.38;5047324;27;97427;-73
2023/05/15 06:27:02;;;;;;;5.72;5.13;;;;;;;16.45;67.75;99302.59;5054393;27;97605;-74
2023/05/15 06:29:28;;;;;;;6.75;5.70;;;;;;;16.38;67.60;99278.38;5064488;27;98078;-73
2023/05/15 06:31:53;;;;;;;6.05;5.35;;;;;;;16.44;67.52;99287.69;5030614;27;101479;-73
2023/05/15 06:34:19;;;;;;;11.55;5.70;;;;;;;16.55;67.43;99294.78;5046730;27;101549;-74
2023/05/15 06:36:44;;;;;;;6.30;5.70;;;;;;;16.28;66.87;99262.31;5032356;27;97395;-73
2023/05/15 06:39:10;;;;;;;9.85;5.90;;;;;;;16.42;67.54;99292.22;5042763;27;97271;-73
2023/05/15 06:41:36;;;;;;;6.10;5.50;;;;;;;16.26;68.32;99296.03;5053339;27;97976;-73
2023/05/15 06:44:03;;;;;;;6.85;5.30;;;;;;;16.39;67.57;99288.00;5048642;27;101224;-73
2023/05/15 06:46:28;;;;;;;8.20;6.13;;;;;;;16.46;67.40;99296.31;5032487;27;96823;-73
2023/05/15 06:48:54;;;;;;;5.60;5.07;;;;;;;16.48;67.58;99284.66;5049701;27;97062;-73
2023/05/15 06:51:19;;;;;;;7.13;5.78;;;;;;;16.41;67.68;99288.75;5043458;27;101741;-73
2023/05/15 06:53:45;;;;;;;6.35;5.70;;;;;;;16.44;67.97;99285.03;5061420;27;97968;-73
2023/05/15 06:56:10;;;;;;;6.07;5.47;;;;;;;16.42;67.69;99289.59;5053234;27;96735;-73
2023/05/15 06:58:36;;;;;;;5.97;5.28;;;;;;;16.33;67.74;99266.44;5062330;27;96820;-73
2023/05/15 07:01:05;;;;;;;7.07;5.63;;;;;;;16.44;67.62;99280.56;5067031;27;97589;-73
2023/05/15 07:03:32;;;;;;;8.95;5.60;;;;;;;16.29;68.39;99284.38;5031501;27;100962;-73
2023/05/15 07:05:57;;;;;;;5.85;5.32;;;;;;;16.06;69.36;99286.06;5053202;27;96798;-73
2023/05/15 07:08:23;;;;;;;5.80;5.20;;;;;;;16.17;69.18;99278.13;5028256;27;98193;-73
2023/05/15 07:10:48;;;;;;;6.53;5.93;;;;;;;16.50;68.07;99263.38;5068518;27;97291;-73
2023/05/15 07:13:18;;;;;;;6.68;5.93;;;;;;;16.44;68.39;99280.56;5067885;27;97838;-73
2023/05/15 07:15:44;;;;;;;7.68;5.20;;;;;;;16.59;67.32;99259.19;5049025;27;97699;-72
2023/05/15 07:18:09;;;;;;;5.68;5.18;;;;;;;16.82;66.82;99265.41;5068684;27;97205;-73
2023/05/15 07:20:35;;;;;;;8.10;5.43;;;;;;;16.86;66.97;99277.47;5065710;27;98261;-72
2023/05/15 07:23:00;;;;;;;6.50;5.70;;;;;;;16.78;67.22;99270.09;5071112;27;97199;-73
2023/05/15 07:25:26;;;;;;;5.63;5.13;;;;;;;16.89;67.02;99264.81;5053229;27;97373;-73
2023/05/15 07:27:52;;;;;;;5.90;5.30;;;;;;;16.96;66.64;99266.03;5053979;27;97326;-73
2023/05/15 07:30:17;;;;;;;5.85;5.25;;;;;;;16.93;66.31;99228.34;5069058;27;97416;-73
2023/05/15 07:32:43;;;;;;;5.90;5.30;;;;;;;17.24;65.64;99271.84;5053366;27;97402;-73
2023/05/15 07:35:10;;;;;;;5.97;5.18;;;;;;;17.34;64.85;99266.69;5068551;27;96923;-81
2023/05/15 07:37:36;;;;;;;6.18;4.60;;;;;;;17.37;64.72;99248.72;5027445;27;97510;-80
2023/05/15 07:40:03;;;;;;;6.13;5.10;;;;;;;17.29;65.14;99244.97;5051455;27;101047;-80
2023/05/15 07:42:28;;;;;;;7.97;5.38;;;;;;;17.40;64.49;99245.81;5051445;27;97494;-80
2023/05/15 07:44:54;;;;;;;5.78;5.28;;;;;;;17.63;64.54;99262.56;5067599;27;98053;-79
2023/05/15 07:47:19;;;;;;;5.82;4.78;;;;;;;17.67;63.70;99249.88;5056255;27;97294;-79
2023/05/15 07:49:45;;;;;;;6.07;5.45;;;;;;;17.58;64.37;99264.72;5052329;27;97403;-77
2023/05/15 07:52:10;;;;;;;6.93;5.32;;;;;;;17.59;64.76;99263.75;5064308;27;97419;-76
2023/05/15 07:54:38;;;;;;;5.70;5.15;;;;;;;17.50;64.61;99261.84;5052193;27;96802;-78
2023/05/15 07:57:04;;;;;;;6.18;5.57;;;;;;;17.42;65.23;99261.59;5067707;27;96816;-75
2023/05/15 07:59:29;;;;;;;7.32;6.13;;;;;;;17.47;64.99;99259.41;5050064;27;101504;-77
2023/05/15 08:01:55;;;;;;;7.20;5.85;;;;;;;17.68;64.76;99259.50;5060139;27;97460;-79
2023/05/15 08:04:21;;;;;;;6.57;5.97;;;;;;;17.92;63.99;99262.06;5057621;27;97959;-72
2023/05/15 08:06:46;;;;;;;6.30;5.28;;;;;;;17.80;64.55;99268.34;5044634;27;97505;-73
2023/05/15 08:09:12;;;;;;;6.13;4.93;;;;;;;18.17;63.64;99262.69;5070344;27;100857;-71
2023/05/15 08:11:37;;;;;;;7.43;5.82;;;;;;;18.50;62.72;99240.44;5052845;27;101764;-71
2023/05/15 08:14:03;;;;;;;7.88;4.50;;;;;;;18.55;61.27;99222.31;5070190;27;96898;-71
2023/05/15 08:16:28;;;;;;;6.40;4.85;;;;;;;18.73;60.15;99250.03;5070182;27;97366;-71
2023/05/15 08:18:59;;;;;;;5.72;4.88;;;;;;;18.72;60.58;99247.47;5054679;27;99687;-71
2023/05/15 08:21:26;;;;;;;5.43;4.70;;;;;;;18.81;60.26;99257.34;5046830;27;101154;-71
2023/05/15 08:23:52;;;;;;;5.40;4.90;;;;;;;18.86;59.92;99252.47;5052464;27;96724;-71
2023/05/15 08:26:17;;;;;;;5.43;4.70;;;;;;;18.31;60.94;99234.00;5051719;27;96859;-71
2023/05/15 08:28:43;;;;;;;6.82;5.32;;;;;;;18.41;61.45;99246.53;5049424;27;100847;-72
2023/05/15 08:31:10;;;;;;;5.57;5.07;;;;;;;17.73;62.93;99253.84;5066438;27;97274;-72
2023/05/15 08:33:35;;;;;;;6.00;5.40;;;;;;;17.77;63.47;99234.91;5052617;27;98927;-72
2023/05/15 08:36:01;;;;;;;6.18;5.57;;;;;;;18.12;62.57;99252.44;5069934;27;97190;-72
2023/05/15 08:38:26;;;;;;;11.30;5.68;;;;;;;18.11;62.56;99245.44;5068956;27;97880;-72
2023/05/15 08:40:53;;;;;;;6.97;5.57;;;;;;;17.45;63.52;99233.97;5070389;27;97938;-72
2023/05/15 08:43:20;;;;;;;6.45;5.85;;;;;;;17.37;64.38;99248.72;5052593;27;97133;-72
2023/05/15 08:45:46;;;;;;;7.85;6.13;;;;;;;17.89;63.26;99251.69;5070156;27;96823;-72
2023/05/15 08:48:20;;;;;;;6.97;6.30;;;;;;;17.99;63.50;99257.06;5051923;27;98089;-72
2023/05/15 08:50:46;;;;;;;7.57;6.70;;;;;;;18.00;63.59;99240.16;5069850;27;98577;-72
2023/05/15 08:53:12;;;;;;;6.75;5.75;;;;;;;17.84;64.54;99248.56;5066937;27;98334;-73
2023/05/15 08:55:39;;;;;;;7.05;6.35;;;;;;;17.69;65.32;99253.25;5034756;27;97523;-74
2023/05/15 08:58:05;;;;;;;10.38;7.43;;;;;;;17.63;65.60;99253.75;5068890;27;97480;-74
2023/05/15 09:00:30;;;;;;;7.60;6.90;;;;;;;17.63;65.00;99236.03;5066462;27;101382;-74
2023/05/15 09:02:58;;;;;;;7.90;7.03;;;;;;;17.76;65.45;99256.25;5052697;27;97178;-74
2023/05/15 09:05:24;;;;;;;8.88;7.43;;;;;;;17.64;65.38;99221.78;5048104;27;97122;-73
2023/05/15 09:07:51;;;;;;;10.07;6.80;;;;;;;17.91;65.38;99252.38;5035063;27;101681;-74
2023/05/15 09:10:18;;;;;;;9.02;7.35;;;;;;;17.87;65.20;99243.84;5052092;27;97839;-74
2023/05/15 09:12:43;;;;;;;7.07;6.35;;;;;;;17.76;65.61;99250.94;5049043;27;97242;-75
2023/05/15 09:15:14;;;;;;;7.18;6.35;;;;;;;17.52;65.28;99238.69;5066399;27;98538;-73
2023/05/15 09:17:41;;;;;;;8.18;5.93;;;;;;;17.66;65.29;99250.84;5070845;27;98547;-73
2023/05/15 09:20:23;;;;;;;6.35;5.75;;;;;;;17.75;64.31;99225.38;5047649;27;100773;-71
2023/05/15 09:22:49;;;;;;;7.32;6.10;;;;;;;18.11;63.71;99240.13;5070892;27;97154;-71
2023/05/15 09:25:32;;;;;;;7.47;6.78;;;;;;;18.58;62.97;99237.97;5059086;27;97290;-75
2023/05/15 09:27:58;;;;;;;7.47;6.78;;;;;;;18.83;62.26;99247.41;5016894;27;97364;-75
2023/05/15 09:30:26;;;;;;;8.15;7.13;;;;;;;18.73;62.20;99227.88;5014504;27;101624;-76
2023/05/15 09:32:53;;;;;;;7.07;6.45;;;;;;;18.74;62.38;99246.38;5016537;27;97169;-75
2023/05/15 09:35:36;;;;;;;7.22;6.47;;;;;;;18.43;63.33;99247.25;5032589;27;97173;-75
2023/05/15 09:38:09;;;;;;;8.88;6.78;;;;;;;18.18;63.76;99245.78;5032699;27;99248;-75
2023/05/15 09:40:34;;;;;;;8.52;6.85;;;;;;;17.73;64.19;99245.88;5033105;27;98767;-75
2023/05/15 09:43:00;;;;;;;9.38;6.20;;;;;;;17.71;64.63;99242.50;5016827;27;97344;-74
2023/05/15 09:45:28;;;;;;;8.60;7.25;;;;;;;17.62;65.27;99239.63;5030355;27;97202;-74
2023/05/15 09:48:02;;;;;;;7.82;7.13;;;;;;;17.73;65.15;99238.75;5032017;27;101071;-73
2023/05/15 09:50:36;;;;;;;8.65;7.30;;;;;;;17.85;65.15;99235.13;5030551;27;97328;-74
2023/05/15 09:53:02;;;;;;;7.90;7.10;;;;;;;18.03;64.80;99232.78;5014166;27;97469;-74
2023/05/15 09:55:27;;;;;;;9.98;7.72;;;;;;;18.14;63.62;99242.53;5050481;27;97150;-74
2023/05/15 09:58:12;;;;;;;13.90;7.13;;;;;;;18.48;63.46;99234.44;5015265;27;101255;-74
2023/05/15 10:00:39;;;;;;;7.63;6.93;;;;;;;18.63;63.01;99234.94;5030314;27;97954;-73
2023/05/15 10:03:05;;;;;;;7.47;6.70;;;;;;;18.83;62.48;99222.66;5015191;27;96924;-74
2023/05/15 10:05:31;;;;;;;7.72;6.85;;;;;;;18.81;62.45;99222.78;5008557;27;97235;-74
2023/05/15 10:07:57;;;;;;;9.38;6.53;;;;;;;18.44;62.48;99246.28;5009936;27;101396;-74
2023/05/15 10:10:24;;;;;;;8.30;7.00;;;;;;;18.31;62.50;99226.03;5012987;27;97442;-74
2023/05/15 10:12:51;;;;;;;9.00;8.10;;;;;;;18.45;62.27;99240.84;5016847;27;97305;-74
2023/05/15 10:15:18;;;;;;;8.30;6.97;;;;;;;18.54;61.99;99237.41;5015221;27;97123;-73
2023/05/15 10:17:47;;;;;;;8.90;6.80;;;;;;;18.73;61.82;99241.16;4996648;28;100424;-74
2023/05/15 10:20:13;;;;;;;6.55;5.90;;;;;;;18.91;61.34;99228.16;5011653;27;101226;-73
2023/05/15 10:22:43;;;;;;;6.10;5.40;;;;;;;19.34;60.07;99240.38;5004724;27;97632;-74
2023/05/15 10:25:15;;;;;;;6.25;5.65;;;;;;;20.02;58.54;99241.44;5015933;27;97356;-75
2023/05/15 10:27:41;;;;;;;7.93;6.13;;;;;;;20.68;57.00;99215.91;5033358;27;98258;-73
2023/05/15 10:30:09;;;;;;;6.07;4.90;;;;;;;21.86;55.07;99234.81;5019140;28;97801;-73
2023/05/15 10:32:35;;;;;;;5.72;4.55;;;;;;;22.07;54.62;99241.72;4995063;27;96859;-73
2023/05/15 10:35:02;;;;;;;6.30;5.15;;;;;;;21.73;54.68;99231.69;5017975;27;97183;-73
2023/05/15 10:37:27;;;;;;;28.50;12.43;;;;;;;21.11;54.93;99228.69;5014411;27;97894;-71
2023/05/15 10:39:54;;;;;;;11.35;5.78;;;;;;;20.62;55.89;99235.97;5031881;27;97411;-73
2023/05/15 10:42:21;;;;;;;16.80;9.10;;;;;;;20.40;56.68;99231.78;5017014;27;97293;-73
2023/05/15 10:44:47;;;;;;;13.52;6.50;;;;;;;20.34;57.18;99237.66;5033407;27;97409;-78
2023/05/15 10:47:13;;;;;;;4.20;3.80;;;;;;;20.12;56.72;99220.97;5015674;27;98059;-78
2023/05/15 10:49:39;;;;;;;5.30;4.25;;;;;;;20.18;56.52;99235.53;4998050;27;100734;-77
2023/05/15 10:52:05;;;;;;;3.97;3.67;;;;;;;20.24;56.27;99232.31;4997777;27;97449;-79
2023/05/15 10:54:30;;;;;;;5.38;4.25;;;;;;;19.73;56.92;99224.59;5026860;27;97348;-78
2023/05/15 10:56:56;;;;;;;5.70;4.07;;;;;;;19.68;57.38;99246.28;5006311;27;99250;-78
2023/05/15 10:59:30;;;;;;;5.20;3.55;;;;;;;19.57;57.28;99241.03;5013742;27;98270;-77
2023/05/15 11:01:55;;;;;;;4.22;3.83;;;;;;;19.64;56.26;99244.84;4997281;27;96831;-80
2023/05/15 11:04:22;;;;;;;9.00;3.95;;;;;;;20.01;56.15;99238.91;5017388;27;96904;-79
2023/05/15 11:06:49;;;;;;;6.72;4.22;;;;;;;20.21;54.91;99226.44;5017837;27;98097;-79
2023/05/15 11:09:20;;;;;;;5.43;4.35;;;;;;;20.56;54.83;99233.88;5005180;27;101588;-80
2023/05/15 11:12:07;;;;;;;6.28;4.00;;;;;;;20.62;54.43;99241.31;5034443;27;97124;-81
2023/05/15 11:14:43;;;;;;;6.22;4.15;;;;;;;20.70;53.51;99229.94;4998692;27;97038;-79
2023/05/15 11:17:10;;;;;;;3.80;3.40;;;;;;;21.13;52.98;99212.56;5004670;27;101180;-76
2023/05/15 11:19:48;;;;;;;5.32;4.45;;;;;;;21.96;51.52;99200.00;5032778;27;101205;-76
2023/05/15 11:22:13;;;;;;;7.65;4.93;;;;;;;22.05;51.29;99215.16;5023238;27;97055;-77
2023/05/15 11:24:57;;;;;;;5.43;4.93;;;;;;;21.29;51.00;99188.72;5032460;27;97721;-77
2023/05/15 11:27:44;;;;;;;6.63;4.55;;;;;;;21.19;51.43;99210.13;5015581;27;101788;-77
2023/05/15 11:30:19;;;;;;;4.70;4.30;;;;;;;21.59;51.26;99205.50;5031917;27;100315;-76